sensor_id;sensor_type;location;lat;lon;timestamp;P1;durP1;ratioP1;P2;durP2;ratioP2
38611;SDS011;24368;52.156;20.788;2023-04-03T00:03:55;1.80;;;1.10;;
38611;SDS011;24368;52.156;20.788;2023-04-03T00:08:57;3.20;;;1.50;;
38611;SDS011;24368;52.156;20.788;2023-04-03T00:13:59;4.10;;;2.10;;
38611;SDS011;24368;52.156;20.788;2023-04-03T00:19:01;1.60;;;1.40;;
38611;SDS011;24368;52.156;20.788;2023-04-03T00:24:03;3.10;;;1.30;;
38611;SDS011;24368;52.156;20.788;2023-04-03T00:29:05;2.20;;;1.10;;
38611;SDS011;24368;52.156;20.788;2023-04-03T00:34:07;3.00;;;1.10;;
38611;SDS011;24368;52.156;20.788;2023-04-03T00:39:08;2.80;;;1.20;;
38611;SDS011;24368;52.156;20.788;2023-04-03T00:49:38;2.60;;;1.40;;
38611;SDS011;24368;52.156;20.788;2023-04-03T00:54:41;1.90;;;1.30;;
38611;SDS011;24368;52.156;20.788;2023-04-03T00:59:46;2.40;;;0.90;;
38611;SDS011;24368;52.156;20.788;2023-04-03T01:04:53;3.50;;;2.20;;
38611;SDS011;24368;52.156;20.788;2023-04-03T01:09:57;2.20;;;1.20;;
38611;SDS011;24368;52.156;20.788;2023-04-03T01:15:02;1.60;;;1.20;;
38611;SDS011;24368;52.156;20.788;2023-04-03T01:20:36;2.30;;;1.20;;
38611;SDS011;24368;52.156;20.788;2023-04-03T01:36:18;2.20;;;1.20;;
38611;SDS011;24368;52.156;20.788;2023-04-03T01:41:26;2.60;;;1.40;;
38611;SDS011;24368;52.156;20.788;2023-04-03T01:46:28;2.00;;;1.10;;
38611;SDS011;24368;52.156;20.788;2023-04-03T01:51:29;3.00;;;1.20;;
38611;SDS011;24368;52.156;20.788;2023-04-03T01:56:31;2.50;;;1.20;;
38611;SDS011;24368;52.156;20.788;2023-04-03T02:01:33;1.80;;;1.20;;
38611;SDS011;24368;52.156;20.788;2023-04-03T02:06:35;2.30;;;1.00;;
38611;SDS011;24368;52.156;20.788;2023-04-03T02:11:36;1.80;;;1.00;;
38611;SDS011;24368;52.156;20.788;2023-04-03T02:16:38;1.80;;;1.20;;
38611;SDS011;24368;52.156;20.788;2023-04-03T02:21:40;3.80;;;1.10;;
38611;SDS011;24368;52.156;20.788;2023-04-03T02:26:42;2.00;;;1.30;;
38611;SDS011;24368;52.156;20.788;2023-04-03T02:31:44;3.20;;;1.10;;
38611;SDS011;24368;52.156;20.788;2023-04-03T02:36:45;2.90;;;1.60;;
38611;SDS011;24368;52.156;20.788;2023-04-03T02:41:47;2.40;;;1.20;;
38611;SDS011;24368;52.156;20.788;2023-04-03T02:46:49;2.20;;;0.90;;
38611;SDS011;24368;52.156;20.788;2023-04-03T02:51:51;4.60;;;3.10;;
38611;SDS011;24368;52.156;20.788;2023-04-03T02:56:52;2.70;;;1.10;;
38611;SDS011;24368;52.156;20.788;2023-04-03T03:01:54;1.40;;;1.00;;
38611;SDS011;24368;52.156;20.788;2023-04-03T03:06:57;2.20;;;1.10;;
38611;SDS011;24368;52.156;20.788;2023-04-03T03:11:58;3.40;;;1.40;;
38611;SDS011;24368;52.156;20.788;2023-04-03T03:17:00;1.10;;;0.90;;
38611;SDS011;24368;52.156;20.788;2023-04-03T03:22:02;1.80;;;1.30;;
38611;SDS011;24368;52.156;20.788;2023-04-03T03:27:04;2.40;;;0.80;;
38611;SDS011;24368;52.156;20.788;2023-04-03T03:32:06;1.30;;;1.00;;
38611;SDS011;24368;52.156;20.788;2023-04-03T03:37:07;2.20;;;1.40;;
38611;SDS011;24368;52.156;20.788;2023-04-03T03:42:09;2.70;;;1.10;;
38611;SDS011;24368;52.156;20.788;2023-04-03T03:47:11;3.00;;;1.00;;
38611;SDS011;24368;52.156;20.788;2023-04-03T03:52:12;2.60;;;1.30;;
38611;SDS011;24368;52.156;20.788;2023-04-03T03:57:14;1.80;;;1.30;;
38611;SDS011;24368;52.156;20.788;2023-04-03T04:02:16;1.50;;;1.10;;
38611;SDS011;24368;52.156;20.788;2023-04-03T04:07:18;2.20;;;1.40;;
38611;SDS011;24368;52.156;20.788;2023-04-03T04:12:20;2.90;;;1.70;;
38611;SDS011;24368;52.156;20.788;2023-04-03T04:17:22;4.90;;;1.10;;
38611;SDS011;24368;52.156;20.788;2023-04-03T04:22:24;1.70;;;1.10;;
38611;SDS011;24368;52.156;20.788;2023-04-03T04:27:26;2.90;;;1.50;;
38611;SDS011;24368;52.156;20.788;2023-04-03T04:32:27;2.00;;;1.40;;
38611;SDS011;24368;52.156;20.788;2023-04-03T04:37:29;2.50;;;1.30;;
38611;SDS011;24368;52.156;20.788;2023-04-03T04:42:31;1.50;;;1.10;;
38611;SDS011;24368;52.156;20.788;2023-04-03T04:47:33;2.50;;;1.30;;
38611;SDS011;24368;52.156;20.788;2023-04-03T04:52:35;3.10;;;1.00;;
38611;SDS011;24368;52.156;20.788;2023-04-03T04:57:36;3.90;;;1.20;;
38611;SDS011;24368;52.156;20.788;2023-04-03T05:02:39;2.60;;;1.30;;
38611;SDS011;24368;52.156;20.788;2023-04-03T05:07:41;5.20;;;1.80;;
38611;SDS011;24368;52.156;20.788;2023-04-03T05:12:43;1.80;;;1.20;;
38611;SDS011;24368;52.156;20.788;2023-04-03T05:17:45;1.90;;;1.50;;
38611;SDS011;24368;52.156;20.788;2023-04-03T05:22:47;1.80;;;1.40;;
38611;SDS011;24368;52.156;20.788;2023-04-03T05:27:49;1.50;;;1.10;;
38611;SDS011;24368;52.156;20.788;2023-04-03T05:32:51;3.40;;;1.60;;
38611;SDS011;24368;52.156;20.788;2023-04-03T05:37:53;3.40;;;2.00;;
38611;SDS011;24368;52.156;20.788;2023-04-03T05:42:55;2.20;;;1.80;;
38611;SDS011;24368;52.156;20.788;2023-04-03T05:47:57;3.10;;;1.60;;
38611;SDS011;24368;52.156;20.788;2023-04-03T05:52:59;2.90;;;1.70;;
38611;SDS011;24368;52.156;20.788;2023-04-03T05:58:03;3.10;;;1.60;;
38611;SDS011;24368;52.156;20.788;2023-04-03T06:03:05;3.30;;;1.60;;
38611;SDS011;24368;52.156;20.788;2023-04-03T06:08:07;2.70;;;1.50;;
38611;SDS011;24368;52.156;20.788;2023-04-03T06:13:10;3.20;;;1.80;;
38611;SDS011;24368;52.156;20.788;2023-04-03T06:18:12;3.70;;;1.40;;
38611;SDS011;24368;52.156;20.788;2023-04-03T06:23:13;3.70;;;1.60;;
38611;SDS011;24368;52.156;20.788;2023-04-03T06:28:15;7.70;;;1.80;;
38611;SDS011;24368;52.156;20.788;2023-04-03T06:33:18;4.00;;;2.00;;
38611;SDS011;24368;52.156;20.788;2023-04-03T06:38:19;3.60;;;1.60;;
38611;SDS011;24368;52.156;20.788;2023-04-03T06:43:21;2.00;;;1.50;;
38611;SDS011;24368;52.156;20.788;2023-04-03T06:48:23;4.70;;;1.80;;
38611;SDS011;24368;52.156;20.788;2023-04-03T06:53:25;3.40;;;1.50;;
38611;SDS011;24368;52.156;20.788;2023-04-03T06:58:27;2.90;;;1.50;;
38611;SDS011;24368;52.156;20.788;2023-04-03T07:03:29;3.90;;;1.60;;
38611;SDS011;24368;52.156;20.788;2023-04-03T07:08:31;3.20;;;1.80;;
38611;SDS011;24368;52.156;20.788;2023-04-03T07:13:33;1.80;;;1.60;;
38611;SDS011;24368;52.156;20.788;2023-04-03T07:18:36;3.20;;;1.70;;
38611;SDS011;24368;52.156;20.788;2023-04-03T07:23:38;3.80;;;1.90;;
38611;SDS011;24368;52.156;20.788;2023-04-03T07:28:40;3.30;;;2.20;;
38611;SDS011;24368;52.156;20.788;2023-04-03T07:33:43;3.10;;;1.60;;
38611;SDS011;24368;52.156;20.788;2023-04-03T07:38:46;2.90;;;1.80;;
38611;SDS011;24368;52.156;20.788;2023-04-03T07:43:48;3.10;;;1.60;;
38611;SDS011;24368;52.156;20.788;2023-04-03T07:48:51;3.10;;;1.80;;
38611;SDS011;24368;52.156;20.788;2023-04-03T07:53:53;4.60;;;2.70;;
38611;SDS011;24368;52.156;20.788;2023-04-03T07:58:55;4.10;;;2.00;;
38611;SDS011;24368;52.156;20.788;2023-04-03T08:03:57;4.80;;;3.10;;
38611;SDS011;24368;52.156;20.788;2023-04-03T08:08:59;3.30;;;2.10;;
38611;SDS011;24368;52.156;20.788;2023-04-03T08:14:00;2.90;;;1.90;;
38611;SDS011;24368;52.156;20.788;2023-04-03T08:19:03;3.60;;;2.30;;
38611;SDS011;24368;52.156;20.788;2023-04-03T08:24:06;3.70;;;2.40;;
38611;SDS011;24368;52.156;20.788;2023-04-03T08:29:07;2.60;;;1.60;;
38611;SDS011;24368;52.156;20.788;2023-04-03T08:34:09;5.90;;;1.80;;
38611;SDS011;24368;52.156;20.788;2023-04-03T08:39:11;3.70;;;2.40;;
38611;SDS011;24368;52.156;20.788;2023-04-03T08:44:37;3.00;;;2.50;;
38611;SDS011;24368;52.156;20.788;2023-04-03T08:49:53;1.70;;;1.20;;
38611;SDS011;24368;52.156;20.788;2023-04-03T08:55:00;2.20;;;1.30;;
38611;SDS011;24368;52.156;20.788;2023-04-03T09:05:19;3.20;;;1.80;;
38611;SDS011;24368;52.156;20.788;2023-04-03T09:10:32;3.80;;;2.30;;
38611;SDS011;24368;52.156;20.788;2023-04-03T09:15:36;5.10;;;1.90;;
38611;SDS011;24368;52.156;20.788;2023-04-03T09:25:45;3.90;;;1.70;;
38611;SDS011;24368;52.156;20.788;2023-04-03T09:30:47;4.10;;;1.70;;
38611;SDS011;24368;52.156;20.788;2023-04-03T09:35:49;6.10;;;3.50;;
38611;SDS011;24368;52.156;20.788;2023-04-03T09:51:39;4.10;;;1.40;;
38611;SDS011;24368;52.156;20.788;2023-04-03T09:56:42;1.60;;;1.40;;
38611;SDS011;24368;52.156;20.788;2023-04-03T10:02:18;1.70;;;1.30;;
38611;SDS011;24368;52.156;20.788;2023-04-03T10:07:29;3.10;;;1.80;;
38611;SDS011;24368;52.156;20.788;2023-04-03T10:12:31;2.50;;;1.60;;
38611;SDS011;24368;52.156;20.788;2023-04-03T10:17:50;1.20;;;1.10;;
38611;SDS011;24368;52.156;20.788;2023-04-03T10:23:08;1.30;;;1.20;;
38611;SDS011;24368;52.156;20.788;2023-04-03T10:28:31;2.80;;;1.90;;
38611;SDS011;24368;52.156;20.788;2023-04-03T10:45:01;1.70;;;1.10;;
38611;SDS011;24368;52.156;20.788;2023-04-03T10:55:37;3.30;;;1.00;;
38611;SDS011;24368;52.156;20.788;2023-04-03T11:00:45;3.50;;;0.90;;
38611;SDS011;24368;52.156;20.788;2023-04-03T11:05:51;1.30;;;1.20;;
38611;SDS011;24368;52.156;20.788;2023-04-03T11:10:56;3.30;;;1.50;;
38611;SDS011;24368;52.156;20.788;2023-04-03T11:16:01;2.50;;;1.50;;
38611;SDS011;24368;52.156;20.788;2023-04-03T11:26:43;2.10;;;1.30;;
38611;SDS011;24368;52.156;20.788;2023-04-03T11:42:30;5.00;;;1.40;;
38611;SDS011;24368;52.156;20.788;2023-04-03T11:47:47;2.20;;;0.90;;
38611;SDS011;24368;52.156;20.788;2023-04-03T12:03:00;1.40;;;0.90;;
38611;SDS011;24368;52.156;20.788;2023-04-03T12:13:29;2.40;;;1.30;;
38611;SDS011;24368;52.156;20.788;2023-04-03T12:18:44;1.50;;;1.00;;
38611;SDS011;24368;52.156;20.788;2023-04-03T12:23:57;2.50;;;1.50;;
38611;SDS011;24368;52.156;20.788;2023-04-03T12:29:20;1.90;;;0.80;;
38611;SDS011;24368;52.156;20.788;2023-04-03T12:45:21;1.50;;;1.10;;
38611;SDS011;24368;52.156;20.788;2023-04-03T12:55:31;1.80;;;1.00;;
38611;SDS011;24368;52.156;20.788;2023-04-03T13:00:34;3.10;;;1.60;;
38611;SDS011;24368;52.156;20.788;2023-04-03T13:05:37;1.60;;;1.10;;
38611;SDS011;24368;52.156;20.788;2023-04-03T13:10:48;0.80;;;0.80;;
38611;SDS011;24368;52.156;20.788;2023-04-03T13:15:56;1.30;;;1.00;;
38611;SDS011;24368;52.156;20.788;2023-04-03T13:21:06;1.00;;;0.90;;
38611;SDS011;24368;52.156;20.788;2023-04-03T13:26:15;3.40;;;1.20;;
38611;SDS011;24368;52.156;20.788;2023-04-03T13:31:20;2.00;;;1.30;;
38611;SDS011;24368;52.156;20.788;2023-04-03T13:36:29;0.70;;;0.70;;
38611;SDS011;24368;52.156;20.788;2023-04-03T13:46:39;2.10;;;1.90;;
38611;SDS011;24368;52.156;20.788;2023-04-03T13:51:41;2.40;;;1.00;;
38611;SDS011;24368;52.156;20.788;2023-04-03T13:56:43;1.30;;;1.00;;
38611;SDS011;24368;52.156;20.788;2023-04-03T14:07:08;3.00;;;1.10;;
38611;SDS011;24368;52.156;20.788;2023-04-03T14:17:28;2.00;;;1.30;;
38611;SDS011;24368;52.156;20.788;2023-04-03T14:22:32;3.20;;;1.10;;
38611;SDS011;24368;52.156;20.788;2023-04-03T14:27:37;7.20;;;1.20;;
38611;SDS011;24368;52.156;20.788;2023-04-03T14:32:50;1.10;;;1.00;;
38611;SDS011;24368;52.156;20.788;2023-04-03T14:37:52;4.60;;;0.90;;
38611;SDS011;24368;52.156;20.788;2023-04-03T14:42:56;1.80;;;0.90;;
38611;SDS011;24368;52.156;20.788;2023-04-03T14:47:59;3.40;;;0.80;;
38611;SDS011;24368;52.156;20.788;2023-04-03T14:53:01;1.30;;;1.00;;
38611;SDS011;24368;52.156;20.788;2023-04-03T14:58:03;1.30;;;1.10;;
38611;SDS011;24368;52.156;20.788;2023-04-03T15:03:05;2.60;;;1.00;;
38611;SDS011;24368;52.156;20.788;2023-04-03T15:08:20;2.70;;;1.90;;
38611;SDS011;24368;52.156;20.788;2023-04-03T15:13:25;1.30;;;0.80;;
38611;SDS011;24368;52.156;20.788;2023-04-03T15:18:27;1.80;;;1.00;;
38611;SDS011;24368;52.156;20.788;2023-04-03T15:23:34;1.80;;;1.30;;
38611;SDS011;24368;52.156;20.788;2023-04-03T15:28:37;2.70;;;1.60;;
38611;SDS011;24368;52.156;20.788;2023-04-03T15:33:41;7.40;;;4.50;;
38611;SDS011;24368;52.156;20.788;2023-04-03T15:38:43;10.90;;;6.40;;
38611;SDS011;24368;52.156;20.788;2023-04-03T15:43:45;3.30;;;2.30;;
38611;SDS011;24368;52.156;20.788;2023-04-03T15:48:47;3.90;;;1.50;;
38611;SDS011;24368;52.156;20.788;2023-04-03T15:53:48;1.30;;;1.20;;
38611;SDS011;24368;52.156;20.788;2023-04-03T15:58:50;4.40;;;1.70;;
38611;SDS011;24368;52.156;20.788;2023-04-03T16:03:52;4.70;;;2.70;;
38611;SDS011;24368;52.156;20.788;2023-04-03T16:08:54;5.00;;;2.00;;
38611;SDS011;24368;52.156;20.788;2023-04-03T16:13:59;3.10;;;1.70;;
38611;SDS011;24368;52.156;20.788;2023-04-03T16:19:00;4.30;;;1.90;;
38611;SDS011;24368;52.156;20.788;2023-04-03T16:24:02;1.30;;;1.10;;
38611;SDS011;24368;52.156;20.788;2023-04-03T16:29:04;5.10;;;2.80;;
38611;SDS011;24368;52.156;20.788;2023-04-03T16:34:06;7.90;;;2.50;;
38611;SDS011;24368;52.156;20.788;2023-04-03T16:39:08;3.90;;;2.30;;
38611;SDS011;24368;52.156;20.788;2023-04-03T16:44:13;2.30;;;1.90;;
38611;SDS011;24368;52.156;20.788;2023-04-03T16:49:16;2.00;;;1.80;;
38611;SDS011;24368;52.156;20.788;2023-04-03T16:54:18;4.10;;;1.90;;
38611;SDS011;24368;52.156;20.788;2023-04-03T16:59:20;6.40;;;3.50;;
38611;SDS011;24368;52.156;20.788;2023-04-03T17:04:22;3.40;;;2.80;;
38611;SDS011;24368;52.156;20.788;2023-04-03T17:09:24;3.30;;;2.30;;
38611;SDS011;24368;52.156;20.788;2023-04-03T17:14:26;3.00;;;1.80;;
38611;SDS011;24368;52.156;20.788;2023-04-03T17:19:27;4.40;;;2.10;;
38611;SDS011;24368;52.156;20.788;2023-04-03T17:24:30;5.30;;;2.10;;
38611;SDS011;24368;52.156;20.788;2023-04-03T17:29:32;5.90;;;2.70;;
38611;SDS011;24368;52.156;20.788;2023-04-03T17:34:34;3.90;;;2.40;;
38611;SDS011;24368;52.156;20.788;2023-04-03T17:39:37;4.70;;;2.40;;
38611;SDS011;24368;52.156;20.788;2023-04-03T17:44:39;5.20;;;2.90;;
38611;SDS011;24368;52.156;20.788;2023-04-03T17:49:41;3.30;;;2.90;;
38611;SDS011;24368;52.156;20.788;2023-04-03T17:54:43;3.30;;;2.20;;
38611;SDS011;24368;52.156;20.788;2023-04-03T17:59:45;3.70;;;2.50;;
38611;SDS011;24368;52.156;20.788;2023-04-03T18:04:50;4.00;;;2.40;;
38611;SDS011;24368;52.156;20.788;2023-04-03T18:14:57;4.20;;;2.70;;
38611;SDS011;24368;52.156;20.788;2023-04-03T18:20:01;4.30;;;2.50;;
38611;SDS011;24368;52.156;20.788;2023-04-03T18:25:03;2.70;;;2.30;;
38611;SDS011;24368;52.156;20.788;2023-04-03T18:30:09;2.60;;;2.20;;
38611;SDS011;24368;52.156;20.788;2023-04-03T18:35:13;3.50;;;2.70;;
38611;SDS011;24368;52.156;20.788;2023-04-03T18:40:15;4.00;;;2.70;;
38611;SDS011;24368;52.156;20.788;2023-04-03T18:45:20;7.60;;;5.40;;
38611;SDS011;24368;52.156;20.788;2023-04-03T18:55:26;4.90;;;3.00;;
38611;SDS011;24368;52.156;20.788;2023-04-03T19:00:28;3.30;;;2.80;;
38611;SDS011;24368;52.156;20.788;2023-04-03T19:05:30;3.50;;;2.90;;
38611;SDS011;24368;52.156;20.788;2023-04-03T19:10:33;3.80;;;2.90;;
38611;SDS011;24368;52.156;20.788;2023-04-03T19:15:35;3.20;;;3.00;;
38611;SDS011;24368;52.156;20.788;2023-04-03T19:20:38;4.20;;;3.00;;
38611;SDS011;24368;52.156;20.788;2023-04-03T19:25:40;3.60;;;3.20;;
38611;SDS011;24368;52.156;20.788;2023-04-03T19:30:42;5.30;;;3.80;;
38611;SDS011;24368;52.156;20.788;2023-04-03T19:35:48;5.10;;;3.70;;
38611;SDS011;24368;52.156;20.788;2023-04-03T19:40:51;5.50;;;3.60;;
38611;SDS011;24368;52.156;20.788;2023-04-03T19:45:55;4.50;;;3.60;;
38611;SDS011;24368;52.156;20.788;2023-04-03T19:50:57;6.10;;;3.30;;
38611;SDS011;24368;52.156;20.788;2023-04-03T19:55:59;5.70;;;3.80;;
38611;SDS011;24368;52.156;20.788;2023-04-03T20:01:01;5.20;;;4.00;;
38611;SDS011;24368;52.156;20.788;2023-04-03T20:06:03;5.80;;;4.10;;
38611;SDS011;24368;52.156;20.788;2023-04-03T20:11:05;5.60;;;4.10;;
38611;SDS011;24368;52.156;20.788;2023-04-03T20:16:07;5.90;;;4.50;;
38611;SDS011;24368;52.156;20.788;2023-04-03T20:21:09;5.50;;;4.80;;
38611;SDS011;24368;52.156;20.788;2023-04-03T20:26:17;6.60;;;4.60;;
38611;SDS011;24368;52.156;20.788;2023-04-03T20:31:24;5.60;;;4.70;;
38611;SDS011;24368;52.156;20.788;2023-04-03T20:36:27;7.40;;;5.20;;
38611;SDS011;24368;52.156;20.788;2023-04-03T20:41:31;7.40;;;4.30;;
38611;SDS011;24368;52.156;20.788;2023-04-03T20:46:36;4.00;;;3.20;;
38611;SDS011;24368;52.156;20.788;2023-04-03T20:51:38;5.60;;;4.10;;
38611;SDS011;24368;52.156;20.788;2023-04-03T20:56:40;5.50;;;3.90;;
38611;SDS011;24368;52.156;20.788;2023-04-03T21:01:43;3.90;;;3.10;;
38611;SDS011;24368;52.156;20.788;2023-04-03T21:23:08;6.00;;;3.30;;
38611;SDS011;24368;52.156;20.788;2023-04-03T21:28:10;3.80;;;2.70;;
38611;SDS011;24368;52.156;20.788;2023-04-03T21:33:12;4.30;;;3.40;;
38611;SDS011;24368;52.156;20.788;2023-04-03T21:38:14;4.70;;;3.50;;
38611;SDS011;24368;52.156;20.788;2023-04-03T21:43:15;5.50;;;3.60;;
38611;SDS011;24368;52.156;20.788;2023-04-03T21:48:18;4.40;;;2.90;;
38611;SDS011;24368;52.156;20.788;2023-04-03T21:53:20;5.90;;;3.50;;
38611;SDS011;24368;52.156;20.788;2023-04-03T21:58:26;5.10;;;3.40;;
38611;SDS011;24368;52.156;20.788;2023-04-03T22:03:30;5.40;;;4.00;;
38611;SDS011;24368;52.156;20.788;2023-04-03T22:08:35;4.30;;;3.70;;
38611;SDS011;24368;52.156;20.788;2023-04-03T22:13:37;3.60;;;2.70;;
38611;SDS011;24368;52.156;20.788;2023-04-03T22:18:39;5.30;;;3.30;;
38611;SDS011;24368;52.156;20.788;2023-04-03T22:23:41;3.70;;;3.00;;
38611;SDS011;24368;52.156;20.788;2023-04-03T22:28:43;4.50;;;3.00;;
38611;SDS011;24368;52.156;20.788;2023-04-03T22:33:47;4.50;;;2.70;;
38611;SDS011;24368;52.156;20.788;2023-04-03T22:38:48;3.20;;;2.60;;
38611;SDS011;24368;52.156;20.788;2023-04-03T22:43:50;3.90;;;2.50;;
38611;SDS011;24368;52.156;20.788;2023-04-03T22:48:52;2.90;;;2.40;;
38611;SDS011;24368;52.156;20.788;2023-04-03T22:53:54;3.00;;;2.50;;
38611;SDS011;24368;52.156;20.788;2023-04-03T22:58:55;2.90;;;2.80;;
38611;SDS011;24368;52.156;20.788;2023-04-03T23:03:57;3.90;;;2.60;;
38611;SDS011;24368;52.156;20.788;2023-04-03T23:08:59;6.70;;;2.20;;
38611;SDS011;24368;52.156;20.788;2023-04-03T23:14:01;3.40;;;2.40;;
38611;SDS011;24368;52.156;20.788;2023-04-03T23:19:03;2.50;;;2.20;;
38611;SDS011;24368;52.156;20.788;2023-04-03T23:24:05;2.70;;;2.20;;
38611;SDS011;24368;52.156;20.788;2023-04-03T23:29:07;4.10;;;2.30;;
38611;SDS011;24368;52.156;20.788;2023-04-03T23:34:08;4.00;;;2.30;;
38611;SDS011;24368;52.156;20.788;2023-04-03T23:39:10;2.90;;;2.30;;
38611;SDS011;24368;52.156;20.788;2023-04-03T23:44:12;4.40;;;2.90;;
38611;SDS011;24368;52.156;20.788;2023-04-03T23:49:14;5.30;;;3.10;;
38611;SDS011;24368;52.156;20.788;2023-04-03T23:54:16;6.00;;;3.40;;
38611;SDS011;24368;52.156;20.788;2023-04-03T23:59:18;6.30;;;3.60;;
